sensor_id;sensor_type;location;lat;lon;timestamp;pressure;altitude;pressure_sealevel;temperature;humidity
49063;BME280;34876;51.464;-0.150;2023-02-03T00:00:35;102788.36;;;17.25;43.71
49063;BME280;34876;51.464;-0.150;2023-02-03T00:03:04;102777.25;;;17.18;43.82
49063;BME280;34876;51.464;-0.150;2023-02-03T00:05:33;102774.65;;;17.23;43.72
49063;BME280;34876;51.464;-0.150;2023-02-03T00:08:04;102773.60;;;17.22;43.91
49063;BME280;34876;51.464;-0.150;2023-02-03T00:10:36;102774.42;;;17.11;44.28
49063;BME280;34876;51.464;-0.150;2023-02-03T00:13:07;102785.91;;;17.24;43.82
49063;BME280;34876;51.464;-0.150;2023-02-03T00:15:36;102796.18;;;17.13;44.26
49063;BME280;34876;51.464;-0.150;2023-02-03T00:18:05;102798.23;;;17.20;43.85
49063;BME280;34876;51.464;-0.150;2023-02-03T00:20:34;102798.55;;;17.12;44.17
49063;BME280;34876;51.464;-0.150;2023-02-03T00:23:10;102794.86;;;17.21;43.83
49063;BME280;34876;51.464;-0.150;2023-02-03T00:25:40;102794.82;;;17.27;43.81
49063;BME280;34876;51.464;-0.150;2023-02-03T00:28:11;102792.90;;;16.99;44.49
49063;BME280;34876;51.464;-0.150;2023-02-03T00:30:45;102795.31;;;17.18;44.14
49063;BME280;34876;51.464;-0.150;2023-02-03T00:33:17;102795.23;;;17.28;43.85
49063;BME280;34876;51.464;-0.150;2023-02-03T00:35:45;102792.86;;;17.08;44.39
49063;BME280;34876;51.464;-0.150;2023-02-03T00:38:14;102792.00;;;17.27;43.74
49063;BME280;34876;51.464;-0.150;2023-02-03T00:40:50;102788.65;;;17.27;43.84
49063;BME280;34876;51.464;-0.150;2023-02-03T00:43:20;102786.18;;;17.28;43.90
49063;BME280;34876;51.464;-0.150;2023-02-03T00:45:49;102790.12;;;17.30;43.60
49063;BME280;34876;51.464;-0.150;2023-02-03T00:48:18;102790.56;;;17.21;43.97
49063;BME280;34876;51.464;-0.150;2023-02-03T00:50:47;102779.06;;;17.29;43.80
49063;BME280;34876;51.464;-0.150;2023-02-03T00:53:15;102762.57;;;17.26;43.71
49063;BME280;34876;51.464;-0.150;2023-02-03T00:55:44;102757.26;;;17.28;43.74
49063;BME280;34876;51.464;-0.150;2023-02-03T00:58:14;102758.58;;;17.27;43.75
49063;BME280;34876;51.464;-0.150;2023-02-03T01:03:30;102749.07;;;17.30;43.74
49063;BME280;34876;51.464;-0.150;2023-02-03T01:06:08;102752.95;;;16.93;45.60
49063;BME280;34876;51.464;-0.150;2023-02-03T01:08:37;102747.03;;;17.13;44.30
49063;BME280;34876;51.464;-0.150;2023-02-03T01:11:07;102748.07;;;17.26;43.79
49063;BME280;34876;51.464;-0.150;2023-02-03T01:13:37;102759.92;;;17.27;43.91
49063;BME280;34876;51.464;-0.150;2023-02-03T01:16:07;102761.79;;;17.28;43.88
49063;BME280;34876;51.464;-0.150;2023-02-03T01:18:37;102760.91;;;17.30;43.70
49063;BME280;34876;51.464;-0.150;2023-02-03T01:21:08;102764.02;;;17.32;43.61
49063;BME280;34876;51.464;-0.150;2023-02-03T01:23:38;102755.20;;;17.31;43.81
49063;BME280;34876;51.464;-0.150;2023-02-03T01:26:10;102755.04;;;17.30;43.92
49063;BME280;34876;51.464;-0.150;2023-02-03T01:28:40;102761.56;;;17.32;43.64
49063;BME280;34876;51.464;-0.150;2023-02-03T01:31:11;102754.69;;;17.31;43.61
49063;BME280;34876;51.464;-0.150;2023-02-03T01:33:41;102750.57;;;17.30;43.57
49063;BME280;34876;51.464;-0.150;2023-02-03T01:36:11;102758.56;;;17.31;43.61
49063;BME280;34876;51.464;-0.150;2023-02-03T01:38:41;102761.95;;;17.32;43.55
49063;BME280;34876;51.464;-0.150;2023-02-03T01:41:13;102760.12;;;17.31;43.60
49063;BME280;34876;51.464;-0.150;2023-02-03T01:43:45;102753.13;;;17.31;43.61
49063;BME280;34876;51.464;-0.150;2023-02-03T01:46:23;102753.22;;;17.32;43.56
49063;BME280;34876;51.464;-0.150;2023-02-03T01:48:55;102756.70;;;17.31;43.59
49063;BME280;34876;51.464;-0.150;2023-02-03T01:51:26;102761.51;;;17.31;43.49
49063;BME280;34876;51.464;-0.150;2023-02-03T01:53:55;102761.78;;;17.32;43.63
49063;BME280;34876;51.464;-0.150;2023-02-03T01:56:28;102757.45;;;17.27;43.79
49063;BME280;34876;51.464;-0.150;2023-02-03T01:59:00;102754.39;;;17.32;43.49
49063;BME280;34876;51.464;-0.150;2023-02-03T02:01:29;102753.23;;;17.28;43.85
49063;BME280;34876;51.464;-0.150;2023-02-03T02:04:00;102754.51;;;17.32;43.78
49063;BME280;34876;51.464;-0.150;2023-02-03T02:06:31;102757.84;;;17.33;43.48
49063;BME280;34876;51.464;-0.150;2023-02-03T02:09:00;102755.10;;;17.33;43.46
49063;BME280;34876;51.464;-0.150;2023-02-03T02:11:29;102756.12;;;17.29;43.67
49063;BME280;34876;51.464;-0.150;2023-02-03T02:14:00;102750.83;;;17.31;43.53
49063;BME280;34876;51.464;-0.150;2023-02-03T02:16:36;102740.62;;;17.27;43.62
49063;BME280;34876;51.464;-0.150;2023-02-03T02:20:00;102732.90;;;17.25;43.78
49063;BME280;34876;51.464;-0.150;2023-02-03T02:22:47;102727.21;;;17.27;43.69
49063;BME280;34876;51.464;-0.150;2023-02-03T02:25:35;102729.07;;;17.29;43.56
49063;BME280;34876;51.464;-0.150;2023-02-03T02:30:05;102727.59;;;17.30;43.49
49063;BME280;34876;51.464;-0.150;2023-02-03T02:32:48;102727.45;;;17.29;43.45
49063;BME280;34876;51.464;-0.150;2023-02-03T02:35:32;102738.15;;;17.28;43.51
49063;BME280;34876;51.464;-0.150;2023-02-03T02:38:18;102745.94;;;17.27;43.52
49063;BME280;34876;51.464;-0.150;2023-02-03T02:40:53;102745.68;;;17.29;43.41
49063;BME280;34876;51.464;-0.150;2023-02-03T02:43:28;102753.24;;;17.28;43.56
49063;BME280;34876;51.464;-0.150;2023-02-03T02:46:07;102759.13;;;17.27;43.52
49063;BME280;34876;51.464;-0.150;2023-02-03T02:48:42;102765.46;;;17.27;43.51
49063;BME280;34876;51.464;-0.150;2023-02-03T02:51:14;102766.07;;;17.21;44.67
49063;BME280;34876;51.464;-0.150;2023-02-03T02:53:47;102766.56;;;17.16;43.89
49063;BME280;34876;51.464;-0.150;2023-02-03T02:56:18;102766.28;;;17.22;43.71
49063;BME280;34876;51.464;-0.150;2023-02-03T02:58:48;102766.58;;;17.24;43.75
49063;BME280;34876;51.464;-0.150;2023-02-03T03:01:18;102765.30;;;17.23;43.74
49063;BME280;34876;51.464;-0.150;2023-02-03T03:03:47;102774.22;;;17.03;44.30
49063;BME280;34876;51.464;-0.150;2023-02-03T03:06:20;102769.89;;;16.98;44.54
49063;BME280;34876;51.464;-0.150;2023-02-03T03:08:55;102776.00;;;17.19;43.86
49063;BME280;34876;51.464;-0.150;2023-02-03T03:11:26;102777.70;;;17.21;43.89
49063;BME280;34876;51.464;-0.150;2023-02-03T03:13:58;102775.99;;;17.23;43.85
49063;BME280;34876;51.464;-0.150;2023-02-03T03:16:29;102774.54;;;17.23;43.74
49063;BME280;34876;51.464;-0.150;2023-02-03T03:19:06;102773.25;;;17.23;43.95
49063;BME280;34876;51.464;-0.150;2023-02-03T03:21:40;102777.74;;;17.06;44.19
49063;BME280;34876;51.464;-0.150;2023-02-03T03:24:14;102776.77;;;17.20;43.94
49063;BME280;34876;51.464;-0.150;2023-02-03T03:26:48;102773.50;;;17.21;43.82
49063;BME280;34876;51.464;-0.150;2023-02-03T03:29:23;102766.44;;;17.19;43.99
49063;BME280;34876;51.464;-0.150;2023-02-03T03:31:52;102765.59;;;17.20;43.96
49063;BME280;34876;51.464;-0.150;2023-02-03T03:34:21;102765.52;;;17.20;43.82
49063;BME280;34876;51.464;-0.150;2023-02-03T03:36:55;102757.77;;;17.19;43.80
49063;BME280;34876;51.464;-0.150;2023-02-03T03:39:31;102760.04;;;17.20;43.87
49063;BME280;34876;51.464;-0.150;2023-02-03T03:42:08;102761.21;;;17.15;43.84
49063;BME280;34876;51.464;-0.150;2023-02-03T03:44:42;102766.49;;;17.19;43.76
49063;BME280;34876;51.464;-0.150;2023-02-03T03:47:16;102764.36;;;17.04;44.07
49063;BME280;34876;51.464;-0.150;2023-02-03T03:49:49;102753.49;;;17.18;43.83
49063;BME280;34876;51.464;-0.150;2023-02-03T03:52:23;102750.22;;;17.14;43.86
49063;BME280;34876;51.464;-0.150;2023-02-03T03:54:54;102750.52;;;17.18;43.79
49063;BME280;34876;51.464;-0.150;2023-02-03T03:57:27;102748.34;;;17.15;43.91
49063;BME280;34876;51.464;-0.150;2023-02-03T04:00:00;102748.27;;;17.19;43.72
49063;BME280;34876;51.464;-0.150;2023-02-03T04:02:32;102752.23;;;17.16;43.81
49063;BME280;34876;51.464;-0.150;2023-02-03T04:05:04;102761.55;;;17.17;43.83
49063;BME280;34876;51.464;-0.150;2023-02-03T04:07:42;102759.41;;;17.18;43.83
49063;BME280;34876;51.464;-0.150;2023-02-03T04:10:21;102759.76;;;17.17;44.07
49063;BME280;34876;51.464;-0.150;2023-02-03T04:12:53;102767.96;;;17.12;44.03
49063;BME280;34876;51.464;-0.150;2023-02-03T04:15:21;102768.43;;;17.14;43.92
49063;BME280;34876;51.464;-0.150;2023-02-03T04:17:51;102760.28;;;17.16;43.83
49063;BME280;34876;51.464;-0.150;2023-02-03T04:20:20;102760.52;;;17.16;43.86
49063;BME280;34876;51.464;-0.150;2023-02-03T04:22:50;102760.34;;;17.16;43.84
49063;BME280;34876;51.464;-0.150;2023-02-03T04:25:20;102760.37;;;17.18;43.78
49063;BME280;34876;51.464;-0.150;2023-02-03T04:27:49;102762.97;;;17.16;43.88
49063;BME280;34876;51.464;-0.150;2023-02-03T04:30:18;102756.03;;;17.17;43.89
49063;BME280;34876;51.464;-0.150;2023-02-03T04:32:47;102756.15;;;17.13;43.80
49063;BME280;34876;51.464;-0.150;2023-02-03T04:35:16;102758.41;;;17.18;43.81
49063;BME280;34876;51.464;-0.150;2023-02-03T04:37:46;102759.30;;;17.15;43.93
49063;BME280;34876;51.464;-0.150;2023-02-03T04:40:15;102754.59;;;17.16;44.11
49063;BME280;34876;51.464;-0.150;2023-02-03T04:42:44;102763.15;;;17.15;43.76
49063;BME280;34876;51.464;-0.150;2023-02-03T04:45:13;102774.09;;;17.16;43.82
49063;BME280;34876;51.464;-0.150;2023-02-03T04:47:42;102780.30;;;16.98;44.46
49063;BME280;34876;51.464;-0.150;2023-02-03T04:50:11;102786.29;;;17.13;44.08
49063;BME280;34876;51.464;-0.150;2023-02-03T04:52:40;102792.33;;;17.09;44.04
49063;BME280;34876;51.464;-0.150;2023-02-03T04:55:09;102784.59;;;16.95;44.87
49063;BME280;34876;51.464;-0.150;2023-02-03T04:57:39;102781.72;;;17.12;44.05
49063;BME280;34876;51.464;-0.150;2023-02-03T05:00:08;102779.78;;;16.82;44.94
49063;BME280;34876;51.464;-0.150;2023-02-03T05:02:37;102775.12;;;17.12;44.24
49063;BME280;34876;51.464;-0.150;2023-02-03T05:05:06;102779.10;;;17.14;44.18
49063;BME280;34876;51.464;-0.150;2023-02-03T05:07:35;102790.68;;;17.17;44.21
49063;BME280;34876;51.464;-0.150;2023-02-03T05:10:05;102806.70;;;17.12;44.50
49063;BME280;34876;51.464;-0.150;2023-02-03T05:12:34;102806.07;;;17.20;44.23
49063;BME280;34876;51.464;-0.150;2023-02-03T05:15:04;102800.48;;;17.19;44.58
49063;BME280;34876;51.464;-0.150;2023-02-03T05:17:33;102802.95;;;17.16;44.30
49063;BME280;34876;51.464;-0.150;2023-02-03T05:20:02;102808.71;;;16.66;45.63
49063;BME280;34876;51.464;-0.150;2023-02-03T05:22:31;102795.34;;;17.00;44.91
49063;BME280;34876;51.464;-0.150;2023-02-03T05:25:00;102792.01;;;17.15;44.59
49063;BME280;34876;51.464;-0.150;2023-02-03T05:27:30;102795.13;;;17.03;44.72
49063;BME280;34876;51.464;-0.150;2023-02-03T05:29:59;102800.38;;;17.16;44.49
49063;BME280;34876;51.464;-0.150;2023-02-03T05:32:28;102814.33;;;17.05;45.08
49063;BME280;34876;51.464;-0.150;2023-02-03T05:34:57;102819.35;;;17.18;44.49
49063;BME280;34876;51.464;-0.150;2023-02-03T05:37:26;102825.06;;;17.08;44.76
49063;BME280;34876;51.464;-0.150;2023-02-03T05:39:54;102822.53;;;17.18;44.49
49063;BME280;34876;51.464;-0.150;2023-02-03T05:42:23;102826.22;;;17.12;44.67
49063;BME280;34876;51.464;-0.150;2023-02-03T05:44:52;102824.57;;;17.20;44.62
49063;BME280;34876;51.464;-0.150;2023-02-03T05:47:21;102831.52;;;17.22;44.40
49063;BME280;34876;51.464;-0.150;2023-02-03T05:49:50;102833.03;;;17.13;44.57
49063;BME280;34876;51.464;-0.150;2023-02-03T05:52:19;102836.84;;;17.19;44.41
49063;BME280;34876;51.464;-0.150;2023-02-03T05:54:48;102834.50;;;17.21;44.28
49063;BME280;34876;51.464;-0.150;2023-02-03T05:57:17;102833.55;;;17.12;44.68
49063;BME280;34876;51.464;-0.150;2023-02-03T05:59:46;102835.18;;;17.18;44.18
49063;BME280;34876;51.464;-0.150;2023-02-03T06:02:15;102831.16;;;17.17;44.33
49063;BME280;34876;51.464;-0.150;2023-02-03T06:04:44;102833.82;;;16.79;45.22
49063;BME280;34876;51.464;-0.150;2023-02-03T06:07:13;102828.55;;;17.10;44.41
49063;BME280;34876;51.464;-0.150;2023-02-03T06:09:41;102829.26;;;17.17;44.38
49063;BME280;34876;51.464;-0.150;2023-02-03T06:12:11;102823.66;;;17.11;44.86
49063;BME280;34876;51.464;-0.150;2023-02-03T06:14:40;102831.41;;;17.16;44.68
49063;BME280;34876;51.464;-0.150;2023-02-03T06:17:09;102837.96;;;17.22;44.29
49063;BME280;34876;51.464;-0.150;2023-02-03T06:19:38;102846.47;;;17.21;44.09
49063;BME280;34876;51.464;-0.150;2023-02-03T06:22:07;102849.60;;;17.21;44.01
49063;BME280;34876;51.464;-0.150;2023-02-03T06:24:36;102853.87;;;17.20;44.34
49063;BME280;34876;51.464;-0.150;2023-02-03T06:27:05;102856.83;;;17.20;44.00
49063;BME280;34876;51.464;-0.150;2023-02-03T06:29:33;102854.20;;;17.20;44.06
49063;BME280;34876;51.464;-0.150;2023-02-03T06:32:03;102857.83;;;17.21;44.06
49063;BME280;34876;51.464;-0.150;2023-02-03T06:34:32;102854.38;;;17.13;44.51
49063;BME280;34876;51.464;-0.150;2023-02-03T06:37:01;102852.83;;;17.19;44.40
49063;BME280;34876;51.464;-0.150;2023-02-03T06:39:30;102848.52;;;17.19;44.38
49063;BME280;34876;51.464;-0.150;2023-02-03T06:41:59;102846.49;;;17.10;44.57
49063;BME280;34876;51.464;-0.150;2023-02-03T06:44:28;102848.25;;;17.05;44.88
49063;BME280;34876;51.464;-0.150;2023-02-03T06:46:57;102855.52;;;17.15;44.33
49063;BME280;34876;51.464;-0.150;2023-02-03T06:49:26;102858.52;;;17.03;44.98
49063;BME280;34876;51.464;-0.150;2023-02-03T06:51:55;102861.48;;;17.06;44.46
49063;BME280;34876;51.464;-0.150;2023-02-03T06:54:24;102865.98;;;17.15;44.54
49063;BME280;34876;51.464;-0.150;2023-02-03T06:56:53;102871.85;;;17.08;44.76
49063;BME280;34876;51.464;-0.150;2023-02-03T06:59:21;102863.83;;;17.16;44.62
49063;BME280;34876;51.464;-0.150;2023-02-03T07:01:50;102869.71;;;17.19;44.19
49063;BME280;34876;51.464;-0.150;2023-02-03T07:04:19;102874.50;;;17.20;44.26
49063;BME280;34876;51.464;-0.150;2023-02-03T07:06:49;102880.16;;;17.12;44.47
49063;BME280;34876;51.464;-0.150;2023-02-03T07:09:18;102881.35;;;17.18;44.16
49063;BME280;34876;51.464;-0.150;2023-02-03T07:11:47;102889.65;;;17.13;44.27
49063;BME280;34876;51.464;-0.150;2023-02-03T07:14:16;102899.82;;;17.17;44.17
49063;BME280;34876;51.464;-0.150;2023-02-03T07:16:45;102902.32;;;17.18;44.05
49063;BME280;34876;51.464;-0.150;2023-02-03T07:19:14;102902.71;;;17.18;43.95
49063;BME280;34876;51.464;-0.150;2023-02-03T07:21:45;102903.88;;;17.18;44.08
49063;BME280;34876;51.464;-0.150;2023-02-03T07:24:15;102902.90;;;17.17;44.03
49063;BME280;34876;51.464;-0.150;2023-02-03T07:26:43;102903.34;;;17.17;44.14
49063;BME280;34876;51.464;-0.150;2023-02-03T07:29:13;102902.99;;;17.18;43.88
49063;BME280;34876;51.464;-0.150;2023-02-03T07:31:43;102904.55;;;17.08;44.18
49063;BME280;34876;51.464;-0.150;2023-02-03T07:34:12;102903.92;;;17.16;43.95
49063;BME280;34876;51.464;-0.150;2023-02-03T07:36:43;102905.57;;;17.04;44.44
49063;BME280;34876;51.464;-0.150;2023-02-03T07:39:12;102917.12;;;17.09;44.22
49063;BME280;34876;51.464;-0.150;2023-02-03T07:41:41;102918.34;;;17.16;44.18
49063;BME280;34876;51.464;-0.150;2023-02-03T07:44:11;102916.75;;;17.18;43.94
49063;BME280;34876;51.464;-0.150;2023-02-03T07:46:41;102915.89;;;17.19;43.87
49063;BME280;34876;51.464;-0.150;2023-02-03T07:49:11;102921.43;;;17.19;43.84
49063;BME280;34876;51.464;-0.150;2023-02-03T07:51:40;102920.52;;;17.20;43.85
49063;BME280;34876;51.464;-0.150;2023-02-03T07:54:10;102920.42;;;17.19;43.79
49063;BME280;34876;51.464;-0.150;2023-02-03T07:56:41;102919.72;;;17.18;43.78
49063;BME280;34876;51.464;-0.150;2023-02-03T07:59:10;102925.33;;;17.19;43.81
49063;BME280;34876;51.464;-0.150;2023-02-03T08:01:39;102925.33;;;17.20;43.74
49063;BME280;34876;51.464;-0.150;2023-02-03T08:04:08;102930.11;;;17.18;43.77
49063;BME280;34876;51.464;-0.150;2023-02-03T08:06:37;102922.59;;;17.20;43.69
49063;BME280;34876;51.464;-0.150;2023-02-03T08:09:07;102919.94;;;17.18;43.77
49063;BME280;34876;51.464;-0.150;2023-02-03T08:11:36;102921.11;;;17.21;43.71
49063;BME280;34876;51.464;-0.150;2023-02-03T08:14:06;102921.79;;;17.21;43.79
49063;BME280;34876;51.464;-0.150;2023-02-03T08:16:36;102916.53;;;17.21;43.80
49063;BME280;34876;51.464;-0.150;2023-02-03T08:19:04;102917.80;;;17.22;43.84
49063;BME280;34876;51.464;-0.150;2023-02-03T08:21:34;102921.92;;;17.23;43.81
49063;BME280;34876;51.464;-0.150;2023-02-03T08:24:02;102923.87;;;17.20;43.78
49063;BME280;34876;51.464;-0.150;2023-02-03T08:26:31;102926.34;;;17.23;43.72
49063;BME280;34876;51.464;-0.150;2023-02-03T08:29:06;102931.34;;;17.25;43.63
49063;BME280;34876;51.464;-0.150;2023-02-03T08:31:36;102930.84;;;17.24;43.67
49063;BME280;34876;51.464;-0.150;2023-02-03T08:34:05;102934.93;;;17.25;43.63
49063;BME280;34876;51.464;-0.150;2023-02-03T08:36:34;102942.10;;;17.27;43.61
49063;BME280;34876;51.464;-0.150;2023-02-03T08:39:04;102945.69;;;17.23;44.03
49063;BME280;34876;51.464;-0.150;2023-02-03T08:41:33;102948.38;;;17.29;43.62
49063;BME280;34876;51.464;-0.150;2023-02-03T08:44:02;102946.64;;;17.30;43.52
49063;BME280;34876;51.464;-0.150;2023-02-03T08:46:31;102952.83;;;17.31;43.70
49063;BME280;34876;51.464;-0.150;2023-02-03T08:49:00;102951.30;;;17.32;43.49
49063;BME280;34876;51.464;-0.150;2023-02-03T08:51:29;102957.06;;;17.36;43.69
49063;BME280;34876;51.464;-0.150;2023-02-03T08:53:59;102952.62;;;17.30;43.68
49063;BME280;34876;51.464;-0.150;2023-02-03T08:56:30;102955.50;;;17.35;43.48
49063;BME280;34876;51.464;-0.150;2023-02-03T08:58:59;102960.71;;;17.38;43.49
49063;BME280;34876;51.464;-0.150;2023-02-03T09:01:28;102957.46;;;17.35;43.50
49063;BME280;34876;51.464;-0.150;2023-02-03T09:03:57;102953.25;;;17.33;43.70
49063;BME280;34876;51.464;-0.150;2023-02-03T09:06:27;102958.09;;;17.34;43.55
49063;BME280;34876;51.464;-0.150;2023-02-03T09:08:56;102962.56;;;17.41;43.36
49063;BME280;34876;51.464;-0.150;2023-02-03T09:11:26;102968.20;;;17.42;43.55
49063;BME280;34876;51.464;-0.150;2023-02-03T09:13:55;102969.75;;;17.39;43.96
49063;BME280;34876;51.464;-0.150;2023-02-03T09:16:24;102978.24;;;17.40;43.49
49063;BME280;34876;51.464;-0.150;2023-02-03T09:18:53;102977.87;;;17.42;43.39
49063;BME280;34876;51.464;-0.150;2023-02-03T09:21:22;102976.63;;;17.43;43.41
49063;BME280;34876;51.464;-0.150;2023-02-03T09:23:50;102986.83;;;17.48;43.21
49063;BME280;34876;51.464;-0.150;2023-02-03T09:26:19;102986.31;;;17.46;43.64
49063;BME280;34876;51.464;-0.150;2023-02-03T09:28:48;102989.64;;;17.23;43.94
49063;BME280;34876;51.464;-0.150;2023-02-03T09:31:17;102991.98;;;17.41;43.63
49063;BME280;34876;51.464;-0.150;2023-02-03T09:33:46;102992.65;;;17.41;43.99
49063;BME280;34876;51.464;-0.150;2023-02-03T09:36:15;102995.44;;;17.38;43.89
49063;BME280;34876;51.464;-0.150;2023-02-03T09:38:44;102999.80;;;17.45;43.80
49063;BME280;34876;51.464;-0.150;2023-02-03T09:41:23;103006.24;;;17.48;44.02
49063;BME280;34876;51.464;-0.150;2023-02-03T09:43:59;102998.59;;;17.64;43.42
49063;BME280;34876;51.464;-0.150;2023-02-03T09:46:34;102992.86;;;17.56;43.41
49063;BME280;34876;51.464;-0.150;2023-02-03T09:49:11;102999.67;;;17.43;43.84
49063;BME280;34876;51.464;-0.150;2023-02-03T09:51:46;103004.16;;;17.52;43.64
49063;BME280;34876;51.464;-0.150;2023-02-03T09:54:19;103005.53;;;17.54;43.72
49063;BME280;34876;51.464;-0.150;2023-02-03T09:56:51;103019.57;;;17.61;43.61
49063;BME280;34876;51.464;-0.150;2023-02-03T09:59:22;103027.91;;;17.68;43.20
49063;BME280;34876;51.464;-0.150;2023-02-03T10:01:57;103038.25;;;17.68;43.15
49063;BME280;34876;51.464;-0.150;2023-02-03T10:04:33;103047.37;;;17.62;44.77
49063;BME280;34876;51.464;-0.150;2023-02-03T10:07:11;103052.25;;;17.68;43.32
49063;BME280;34876;51.464;-0.150;2023-02-03T10:09:51;103059.66;;;17.73;43.02
49063;BME280;34876;51.464;-0.150;2023-02-03T10:13:08;103065.76;;;17.41;43.86
49063;BME280;34876;51.464;-0.150;2023-02-03T10:15:52;103075.44;;;17.63;43.40
49063;BME280;34876;51.464;-0.150;2023-02-03T10:18:28;103090.80;;;17.61;43.37
49063;BME280;34876;51.464;-0.150;2023-02-03T10:21:02;103095.48;;;17.59;43.36
49063;BME280;34876;51.464;-0.150;2023-02-03T10:23:35;103100.83;;;17.71;42.94
49063;BME280;34876;51.464;-0.150;2023-02-03T10:26:09;103100.50;;;17.67;44.46
49063;BME280;34876;51.464;-0.150;2023-02-03T10:28:49;103090.72;;;17.77;42.79
49063;BME280;34876;51.464;-0.150;2023-02-03T10:31:21;103091.38;;;17.81;42.96
49063;BME280;34876;51.464;-0.150;2023-02-03T10:34:00;103090.48;;;17.78;43.01
49063;BME280;34876;51.464;-0.150;2023-02-03T10:36:41;103095.59;;;17.84;42.84
49063;BME280;34876;51.464;-0.150;2023-02-03T10:39:20;103091.39;;;17.48;44.74
49063;BME280;34876;51.464;-0.150;2023-02-03T10:41:52;103090.24;;;17.79;43.12
49063;BME280;34876;51.464;-0.150;2023-02-03T10:44:26;103091.59;;;17.78;43.44
49063;BME280;34876;51.464;-0.150;2023-02-03T10:47:15;103092.31;;;17.86;42.87
49063;BME280;34876;51.464;-0.150;2023-02-03T10:49:50;103089.95;;;17.76;43.50
49063;BME280;34876;51.464;-0.150;2023-02-03T10:52:27;103088.80;;;17.71;43.79
49063;BME280;34876;51.464;-0.150;2023-02-03T10:54:57;103086.34;;;17.56;44.45
49063;BME280;34876;51.464;-0.150;2023-02-03T10:57:27;103093.37;;;17.65;44.33
49063;BME280;34876;51.464;-0.150;2023-02-03T11:00:19;103095.10;;;17.65;44.60
49063;BME280;34876;51.464;-0.150;2023-02-03T11:02:54;103103.30;;;17.63;44.39
49063;BME280;34876;51.464;-0.150;2023-02-03T11:05:24;103106.95;;;17.63;44.67
49063;BME280;34876;51.464;-0.150;2023-02-03T11:07:53;103106.22;;;17.74;44.33
49063;BME280;34876;51.464;-0.150;2023-02-03T11:10:28;103107.27;;;17.59;43.96
49063;BME280;34876;51.464;-0.150;2023-02-03T11:13:19;103105.46;;;17.57;44.46
49063;BME280;34876;51.464;-0.150;2023-02-03T11:15:56;103098.92;;;17.64;44.00
49063;BME280;34876;51.464;-0.150;2023-02-03T11:19:00;103105.38;;;17.59;44.07
49063;BME280;34876;51.464;-0.150;2023-02-03T11:21:32;103103.11;;;17.57;44.02
49063;BME280;34876;51.464;-0.150;2023-02-03T11:24:12;103103.90;;;17.26;45.27
49063;BME280;34876;51.464;-0.150;2023-02-03T11:26:47;103106.80;;;17.38;45.39
49063;BME280;34876;51.464;-0.150;2023-02-03T11:29:22;103107.32;;;17.60;44.13
49063;BME280;34876;51.464;-0.150;2023-02-03T11:31:53;103109.06;;;17.36;45.32
49063;BME280;34876;51.464;-0.150;2023-02-03T11:34:26;103104.37;;;17.11;45.37
49063;BME280;34876;51.464;-0.150;2023-02-03T11:36:55;103108.35;;;17.55;44.27
49063;BME280;34876;51.464;-0.150;2023-02-03T11:39:27;103107.50;;;17.48;45.06
49063;BME280;34876;51.464;-0.150;2023-02-03T11:41:56;103105.45;;;17.42;44.90
49063;BME280;34876;51.464;-0.150;2023-02-03T11:44:26;103104.34;;;17.54;44.58
49063;BME280;34876;51.464;-0.150;2023-02-03T11:47:01;103103.92;;;17.28;45.12
49063;BME280;34876;51.464;-0.150;2023-02-03T11:50:39;103107.72;;;17.20;45.63
49063;BME280;34876;51.464;-0.150;2023-02-03T11:53:19;103102.16;;;17.22;45.07
49063;BME280;34876;51.464;-0.150;2023-02-03T11:56:02;103105.27;;;17.19;45.23
49063;BME280;34876;51.464;-0.150;2023-02-03T11:58:46;103105.16;;;17.55;44.15
49063;BME280;34876;51.464;-0.150;2023-02-03T12:01:28;103104.64;;;17.40;44.77
49063;BME280;34876;51.464;-0.150;2023-02-03T12:04:13;103100.72;;;17.21;45.37
49063;BME280;34876;51.464;-0.150;2023-02-03T12:06:58;103108.77;;;16.95;46.30
49063;BME280;34876;51.464;-0.150;2023-02-03T12:09:36;103110.17;;;17.41;44.89
49063;BME280;34876;51.464;-0.150;2023-02-03T12:12:23;103114.42;;;17.37;44.54
49063;BME280;34876;51.464;-0.150;2023-02-03T12:15:06;103111.03;;;17.63;44.13
49063;BME280;34876;51.464;-0.150;2023-02-03T12:17:56;103110.90;;;17.37;44.69
49063;BME280;34876;51.464;-0.150;2023-02-03T12:20:39;103102.11;;;17.64;43.96
49063;BME280;34876;51.464;-0.150;2023-02-03T12:23:21;103097.94;;;17.47;44.83
49063;BME280;34876;51.464;-0.150;2023-02-03T12:26:02;103097.61;;;17.51;44.58
49063;BME280;34876;51.464;-0.150;2023-02-03T12:28:42;103092.87;;;17.58;44.65
49063;BME280;34876;51.464;-0.150;2023-02-03T12:31:19;103101.71;;;17.38;45.04
49063;BME280;34876;51.464;-0.150;2023-02-03T12:33:58;103101.21;;;17.57;44.50
49063;BME280;34876;51.464;-0.150;2023-02-03T12:36:37;103098.61;;;17.66;44.18
49063;BME280;34876;51.464;-0.150;2023-02-03T12:39:13;103095.31;;;17.66;44.26
49063;BME280;34876;51.464;-0.150;2023-02-03T12:41:49;103091.63;;;17.62;44.26
49063;BME280;34876;51.464;-0.150;2023-02-03T12:44:28;103097.71;;;17.52;44.87
49063;BME280;34876;51.464;-0.150;2023-02-03T12:47:03;103098.87;;;17.13;46.03
49063;BME280;34876;51.464;-0.150;2023-02-03T12:49:40;103101.33;;;17.08;45.50
49063;BME280;34876;51.464;-0.150;2023-02-03T12:52:17;103099.06;;;17.19;45.17
49063;BME280;34876;51.464;-0.150;2023-02-03T12:54:58;103103.68;;;17.41;44.59
49063;BME280;34876;51.464;-0.150;2023-02-03T12:57:34;103106.86;;;17.30;45.20
49063;BME280;34876;51.464;-0.150;2023-02-03T13:00:15;103106.55;;;17.40;45.51
49063;BME280;34876;51.464;-0.150;2023-02-03T13:02:58;103103.69;;;16.94;46.21
49063;BME280;34876;51.464;-0.150;2023-02-03T13:05:36;103100.31;;;16.47;47.14
49063;BME280;34876;51.464;-0.150;2023-02-03T13:08:15;103103.20;;;17.35;44.69
49063;BME280;34876;51.464;-0.150;2023-02-03T13:10:49;103103.14;;;17.36;44.58
49063;BME280;34876;51.464;-0.150;2023-02-03T13:13:28;103106.36;;;17.57;44.24